sensor_id;sensor_type;location;lat;lon;timestamp;temperature;humidity
21267;DHT22;10791;53.108;18.326;2023-06-22T00:04:36;19.30;99.90
21267;DHT22;10791;53.108;18.326;2023-06-22T00:09:39;19.30;99.90
21267;DHT22;10791;53.108;18.326;2023-06-22T00:14:42;19.30;99.90
21267;DHT22;10791;53.108;18.326;2023-06-22T00:19:47;19.30;99.90
21267;DHT22;10791;53.108;18.326;2023-06-22T00:24:50;19.30;99.90
21267;DHT22;10791;53.108;18.326;2023-06-22T00:29:53;19.30;99.90
21267;DHT22;10791;53.108;18.326;2023-06-22T00:34:56;19.30;99.90
21267;DHT22;10791;53.108;18.326;2023-06-22T00:39:59;19.30;99.90
21267;DHT22;10791;53.108;18.326;2023-06-22T00:45:03;19.40;99.90
21267;DHT22;10791;53.108;18.326;2023-06-22T00:50:07;19.40;99.90
21267;DHT22;10791;53.108;18.326;2023-06-22T00:55:12;19.40;99.90
21267;DHT22;10791;53.108;18.326;2023-06-22T01:00:16;19.40;99.90
21267;DHT22;10791;53.108;18.326;2023-06-22T01:05:22;19.40;99.90
21267;DHT22;10791;53.108;18.326;2023-06-22T01:15:49;19.40;99.90
21267;DHT22;10791;53.108;18.326;2023-06-22T01:20:56;19.40;99.90
21267;DHT22;10791;53.108;18.326;2023-06-22T01:31:18;19.40;99.90
21267;DHT22;10791;53.108;18.326;2023-06-22T01:36:23;19.30;99.90
21267;DHT22;10791;53.108;18.326;2023-06-22T01:41:28;19.30;99.90
21267;DHT22;10791;53.108;18.326;2023-06-22T01:46:35;19.20;99.90
21267;DHT22;10791;53.108;18.326;2023-06-22T01:51:39;19.20;99.90
21267;DHT22;10791;53.108;18.326;2023-06-22T01:56:42;19.20;99.90
21267;DHT22;10791;53.108;18.326;2023-06-22T02:02:01;19.10;99.90
21267;DHT22;10791;53.108;18.326;2023-06-22T02:07:09;19.10;99.90
21267;DHT22;10791;53.108;18.326;2023-06-22T02:12:18;19.00;99.90
21267;DHT22;10791;53.108;18.326;2023-06-22T02:17:26;19.00;99.90
21267;DHT22;10791;53.108;18.326;2023-06-22T02:22:29;18.80;99.90
21267;DHT22;10791;53.108;18.326;2023-06-22T02:27:32;18.70;99.90
21267;DHT22;10791;53.108;18.326;2023-06-22T02:32:36;18.70;99.90
21267;DHT22;10791;53.108;18.326;2023-06-22T02:37:40;18.70;99.90
21267;DHT22;10791;53.108;18.326;2023-06-22T02:42:44;18.60;99.90
21267;DHT22;10791;53.108;18.326;2023-06-22T02:47:48;18.50;99.90
21267;DHT22;10791;53.108;18.326;2023-06-22T02:52:51;18.40;99.90
21267;DHT22;10791;53.108;18.326;2023-06-22T02:57:54;18.40;99.90
21267;DHT22;10791;53.108;18.326;2023-06-22T03:02:58;18.40;99.90
21267;DHT22;10791;53.108;18.326;2023-06-22T03:08:02;18.40;99.90
21267;DHT22;10791;53.108;18.326;2023-06-22T03:13:05;18.50;99.90
21267;DHT22;10791;53.108;18.326;2023-06-22T03:18:08;18.50;99.90
21267;DHT22;10791;53.108;18.326;2023-06-22T03:23:12;18.60;99.90
21267;DHT22;10791;53.108;18.326;2023-06-22T03:28:15;18.60;99.90
21267;DHT22;10791;53.108;18.326;2023-06-22T03:33:18;18.70;99.90
21267;DHT22;10791;53.108;18.326;2023-06-22T03:38:22;18.70;99.90
21267;DHT22;10791;53.108;18.326;2023-06-22T03:43:25;18.70;99.90
21267;DHT22;10791;53.108;18.326;2023-06-22T03:48:28;18.80;99.90
21267;DHT22;10791;53.108;18.326;2023-06-22T03:53:31;18.80;99.90
21267;DHT22;10791;53.108;18.326;2023-06-22T03:58:34;18.90;99.90
21267;DHT22;10791;53.108;18.326;2023-06-22T04:03:40;18.90;99.90
21267;DHT22;10791;53.108;18.326;2023-06-22T04:08:46;19.10;99.90
21267;DHT22;10791;53.108;18.326;2023-06-22T04:13:54;19.20;99.90
21267;DHT22;10791;53.108;18.326;2023-06-22T04:18:57;19.40;99.90
21267;DHT22;10791;53.108;18.326;2023-06-22T04:24:00;19.60;99.90
21267;DHT22;10791;53.108;18.326;2023-06-22T04:29:04;20.10;99.90
21267;DHT22;10791;53.108;18.326;2023-06-22T04:34:08;20.70;99.90
21267;DHT22;10791;53.108;18.326;2023-06-22T04:39:11;21.50;99.90
21267;DHT22;10791;53.108;18.326;2023-06-22T04:44:17;22.30;99.90
21267;DHT22;10791;53.108;18.326;2023-06-22T04:49:27;23.00;99.90
21267;DHT22;10791;53.108;18.326;2023-06-22T04:54:40;23.60;99.90
21267;DHT22;10791;53.108;18.326;2023-06-22T04:59:50;24.00;99.90
21267;DHT22;10791;53.108;18.326;2023-06-22T05:04:53;24.70;99.90
21267;DHT22;10791;53.108;18.326;2023-06-22T05:10:01;25.00;99.90
21267;DHT22;10791;53.108;18.326;2023-06-22T05:15:06;24.80;99.90
21267;DHT22;10791;53.108;18.326;2023-06-22T05:20:10;24.10;99.90
21267;DHT22;10791;53.108;18.326;2023-06-22T05:25:14;23.60;99.90
21267;DHT22;10791;53.108;18.326;2023-06-22T05:30:17;23.10;99.90
21267;DHT22;10791;53.108;18.326;2023-06-22T05:35:23;22.80;99.90
21267;DHT22;10791;53.108;18.326;2023-06-22T05:40:26;22.60;99.90
21267;DHT22;10791;53.108;18.326;2023-06-22T05:45:30;22.50;99.90
21267;DHT22;10791;53.108;18.326;2023-06-22T05:50:33;22.40;99.90
21267;DHT22;10791;53.108;18.326;2023-06-22T05:55:37;22.10;99.90
21267;DHT22;10791;53.108;18.326;2023-06-22T06:00:41;22.00;99.90
21267;DHT22;10791;53.108;18.326;2023-06-22T06:05:44;21.90;99.90
21267;DHT22;10791;53.108;18.326;2023-06-22T06:10:48;21.80;99.90
21267;DHT22;10791;53.108;18.326;2023-06-22T06:15:51;21.80;99.90
21267;DHT22;10791;53.108;18.326;2023-06-22T06:20:58;22.00;99.90
21267;DHT22;10791;53.108;18.326;2023-06-22T06:26:01;22.00;99.90
21267;DHT22;10791;53.108;18.326;2023-06-22T06:31:04;22.30;99.90
21267;DHT22;10791;53.108;18.326;2023-06-22T06:36:10;22.40;99.90
21267;DHT22;10791;53.108;18.326;2023-06-22T06:41:15;22.50;99.90
21267;DHT22;10791;53.108;18.326;2023-06-22T06:46:19;22.60;99.90
21267;DHT22;10791;53.108;18.326;2023-06-22T06:51:22;22.60;99.90
21267;DHT22;10791;53.108;18.326;2023-06-22T06:56:25;22.80;99.90
21267;DHT22;10791;53.108;18.326;2023-06-22T07:01:28;23.00;99.90
21267;DHT22;10791;53.108;18.326;2023-06-22T07:06:36;23.10;99.90
21267;DHT22;10791;53.108;18.326;2023-06-22T07:11:40;23.20;99.90
21267;DHT22;10791;53.108;18.326;2023-06-22T07:16:43;23.50;99.90
21267;DHT22;10791;53.108;18.326;2023-06-22T07:21:46;23.70;99.90
21267;DHT22;10791;53.108;18.326;2023-06-22T07:26:50;23.80;99.90
21267;DHT22;10791;53.108;18.326;2023-06-22T07:31:53;24.10;99.90
21267;DHT22;10791;53.108;18.326;2023-06-22T07:36:58;24.30;99.90
21267;DHT22;10791;53.108;18.326;2023-06-22T07:42:02;24.40;99.90
21267;DHT22;10791;53.108;18.326;2023-06-22T07:47:05;24.60;99.90
21267;DHT22;10791;53.108;18.326;2023-06-22T07:52:09;24.70;99.90
21267;DHT22;10791;53.108;18.326;2023-06-22T07:57:12;24.70;99.90
21267;DHT22;10791;53.108;18.326;2023-06-22T08:02:25;24.90;99.90
21267;DHT22;10791;53.108;18.326;2023-06-22T08:07:36;25.10;99.10
21267;DHT22;10791;53.108;18.326;2023-06-22T08:12:40;25.20;99.20
21267;DHT22;10791;53.108;18.326;2023-06-22T08:17:45;25.50;97.90
21267;DHT22;10791;53.108;18.326;2023-06-22T08:22:51;25.70;98.00
21267;DHT22;10791;53.108;18.326;2023-06-22T08:27:54;25.80;95.70
21267;DHT22;10791;53.108;18.326;2023-06-22T08:32:59;25.90;96.40
21267;DHT22;10791;53.108;18.326;2023-06-22T08:38:02;25.90;96.00
21267;DHT22;10791;53.108;18.326;2023-06-22T08:43:05;26.00;93.30
21267;DHT22;10791;53.108;18.326;2023-06-22T08:48:09;26.10;92.80
21267;DHT22;10791;53.108;18.326;2023-06-22T08:53:12;26.20;94.00
21267;DHT22;10791;53.108;18.326;2023-06-22T08:58:15;26.30;92.50
21267;DHT22;10791;53.108;18.326;2023-06-22T09:03:19;26.50;92.90
21267;DHT22;10791;53.108;18.326;2023-06-22T09:08:23;26.60;90.90
21267;DHT22;10791;53.108;18.326;2023-06-22T09:18:33;26.60;89.50
21267;DHT22;10791;53.108;18.326;2023-06-22T09:23:36;26.60;87.70
21267;DHT22;10791;53.108;18.326;2023-06-22T09:28:40;26.70;86.80
21267;DHT22;10791;53.108;18.326;2023-06-22T09:33:43;26.60;86.80
21267;DHT22;10791;53.108;18.326;2023-06-22T09:38:48;26.90;90.20
21267;DHT22;10791;53.108;18.326;2023-06-22T09:43:51;27.30;86.30
21267;DHT22;10791;53.108;18.326;2023-06-22T09:48:58;27.30;81.40
21267;DHT22;10791;53.108;18.326;2023-06-22T09:54:01;27.40;87.30
21267;DHT22;10791;53.108;18.326;2023-06-22T09:59:05;27.80;85.20
21267;DHT22;10791;53.108;18.326;2023-06-22T10:04:19;28.00;81.50
21267;DHT22;10791;53.108;18.326;2023-06-22T10:09:23;27.90;80.80
21267;DHT22;10791;53.108;18.326;2023-06-22T10:14:26;28.10;75.70
21267;DHT22;10791;53.108;18.326;2023-06-22T10:19:32;28.10;76.20
21267;DHT22;10791;53.108;18.326;2023-06-22T10:24:36;28.00;71.00
21267;DHT22;10791;53.108;18.326;2023-06-22T10:29:41;28.20;74.40
21267;DHT22;10791;53.108;18.326;2023-06-22T10:34:44;28.30;74.70
21267;DHT22;10791;53.108;18.326;2023-06-22T10:39:48;28.50;73.20
21267;DHT22;10791;53.108;18.326;2023-06-22T10:44:51;28.90;73.10
21267;DHT22;10791;53.108;18.326;2023-06-22T10:49:55;28.80;72.60
21267;DHT22;10791;53.108;18.326;2023-06-22T10:54:58;29.00;71.90
21267;DHT22;10791;53.108;18.326;2023-06-22T11:00:02;28.90;70.60
21267;DHT22;10791;53.108;18.326;2023-06-22T11:05:08;28.90;72.70
21267;DHT22;10791;53.108;18.326;2023-06-22T11:10:12;29.10;71.20
21267;DHT22;10791;53.108;18.326;2023-06-22T11:15:16;29.10;67.30
21267;DHT22;10791;53.108;18.326;2023-06-22T11:20:20;28.70;69.70
21267;DHT22;10791;53.108;18.326;2023-06-22T11:25:23;28.90;67.00
21267;DHT22;10791;53.108;18.326;2023-06-22T11:30:26;29.30;67.50
21267;DHT22;10791;53.108;18.326;2023-06-22T11:35:30;29.40;67.50
21267;DHT22;10791;53.108;18.326;2023-06-22T11:40:34;29.50;68.00
21267;DHT22;10791;53.108;18.326;2023-06-22T11:45:37;29.70;65.30
21267;DHT22;10791;53.108;18.326;2023-06-22T11:50:40;29.60;64.80
21267;DHT22;10791;53.108;18.326;2023-06-22T11:55:44;29.50;65.00
21267;DHT22;10791;53.108;18.326;2023-06-22T12:00:48;29.60;63.10
21267;DHT22;10791;53.108;18.326;2023-06-22T12:05:54;29.60;64.60
21267;DHT22;10791;53.108;18.326;2023-06-22T12:10:57;29.60;65.40
21267;DHT22;10791;53.108;18.326;2023-06-22T12:16:00;29.40;63.80
21267;DHT22;10791;53.108;18.326;2023-06-22T12:21:04;29.60;62.50
21267;DHT22;10791;53.108;18.326;2023-06-22T12:26:07;29.90;61.40
21267;DHT22;10791;53.108;18.326;2023-06-22T12:31:10;30.00;62.90
21267;DHT22;10791;53.108;18.326;2023-06-22T12:36:13;30.00;61.70
21267;DHT22;10791;53.108;18.326;2023-06-22T12:41:17;30.00;64.10
21267;DHT22;10791;53.108;18.326;2023-06-22T12:46:20;30.40;62.50
21267;DHT22;10791;53.108;18.326;2023-06-22T12:51:23;30.30;62.10
21267;DHT22;10791;53.108;18.326;2023-06-22T12:56:26;30.00;61.50
21267;DHT22;10791;53.108;18.326;2023-06-22T13:01:30;29.80;60.50
21267;DHT22;10791;53.108;18.326;2023-06-22T13:06:34;30.00;62.80
21267;DHT22;10791;53.108;18.326;2023-06-22T13:11:38;29.90;61.00
21267;DHT22;10791;53.108;18.326;2023-06-22T13:16:42;30.00;59.90
21267;DHT22;10791;53.108;18.326;2023-06-22T13:21:45;30.00;60.90
21267;DHT22;10791;53.108;18.326;2023-06-22T13:26:48;29.90;60.00
21267;DHT22;10791;53.108;18.326;2023-06-22T13:31:51;29.90;60.20
21267;DHT22;10791;53.108;18.326;2023-06-22T13:36:54;29.80;61.20
21267;DHT22;10791;53.108;18.326;2023-06-22T13:41:58;29.90;59.80
21267;DHT22;10791;53.108;18.326;2023-06-22T13:47:01;30.00;59.40
21267;DHT22;10791;53.108;18.326;2023-06-22T13:52:05;30.20;59.30
21267;DHT22;10791;53.108;18.326;2023-06-22T13:57:13;30.10;59.70
21267;DHT22;10791;53.108;18.326;2023-06-22T14:02:16;30.30;58.80
21267;DHT22;10791;53.108;18.326;2023-06-22T14:07:19;30.30;58.10
21267;DHT22;10791;53.108;18.326;2023-06-22T14:12:24;30.40;57.70
21267;DHT22;10791;53.108;18.326;2023-06-22T14:17:27;30.90;57.40
21267;DHT22;10791;53.108;18.326;2023-06-22T14:22:30;30.70;56.10
21267;DHT22;10791;53.108;18.326;2023-06-22T14:27:34;30.40;55.80
21267;DHT22;10791;53.108;18.326;2023-06-22T14:32:37;30.60;56.50
21267;DHT22;10791;53.108;18.326;2023-06-22T14:37:40;30.50;56.80
21267;DHT22;10791;53.108;18.326;2023-06-22T14:42:43;30.30;57.90
21267;DHT22;10791;53.108;18.326;2023-06-22T14:47:46;30.30;57.70
21267;DHT22;10791;53.108;18.326;2023-06-22T14:52:50;30.40;56.40
21267;DHT22;10791;53.108;18.326;2023-06-22T14:57:53;30.70;56.00
21267;DHT22;10791;53.108;18.326;2023-06-22T15:02:56;31.40;55.20
21267;DHT22;10791;53.108;18.326;2023-06-22T15:07:59;32.20;55.40
21267;DHT22;10791;53.108;18.326;2023-06-22T15:13:02;33.30;52.50
21267;DHT22;10791;53.108;18.326;2023-06-22T15:18:06;33.40;52.70
21267;DHT22;10791;53.108;18.326;2023-06-22T15:23:09;33.90;52.10
21267;DHT22;10791;53.108;18.326;2023-06-22T15:28:12;34.50;50.60
21267;DHT22;10791;53.108;18.326;2023-06-22T15:33:16;34.70;49.30
21267;DHT22;10791;53.108;18.326;2023-06-22T15:38:19;34.30;50.20
21267;DHT22;10791;53.108;18.326;2023-06-22T15:43:22;34.40;49.90
21267;DHT22;10791;53.108;18.326;2023-06-22T15:48:26;33.60;51.20
21267;DHT22;10791;53.108;18.326;2023-06-22T15:53:29;32.60;52.80
21267;DHT22;10791;53.108;18.326;2023-06-22T15:58:32;31.70;53.50
21267;DHT22;10791;53.108;18.326;2023-06-22T16:03:35;30.90;55.00
21267;DHT22;10791;53.108;18.326;2023-06-22T16:08:39;30.90;55.90
21267;DHT22;10791;53.108;18.326;2023-06-22T16:13:42;30.40;55.60
21267;DHT22;10791;53.108;18.326;2023-06-22T16:18:45;30.20;56.60
21267;DHT22;10791;53.108;18.326;2023-06-22T16:23:50;30.30;57.00
21267;DHT22;10791;53.108;18.326;2023-06-22T16:28:54;30.20;56.50
21267;DHT22;10791;53.108;18.326;2023-06-22T16:33:56;29.80;57.70
21267;DHT22;10791;53.108;18.326;2023-06-22T16:39:00;29.70;57.70
21267;DHT22;10791;53.108;18.326;2023-06-22T16:44:03;29.50;57.70
21267;DHT22;10791;53.108;18.326;2023-06-22T16:49:07;29.20;58.80
21267;DHT22;10791;53.108;18.326;2023-06-22T16:54:12;28.80;59.80
21267;DHT22;10791;53.108;18.326;2023-06-22T16:59:15;28.50;60.40
21267;DHT22;10791;53.108;18.326;2023-06-22T17:04:22;28.30;60.70
21267;DHT22;10791;53.108;18.326;2023-06-22T17:09:26;28.40;60.60
21267;DHT22;10791;53.108;18.326;2023-06-22T17:14:32;28.40;59.80
21267;DHT22;10791;53.108;18.326;2023-06-22T17:19:35;28.70;59.30
21267;DHT22;10791;53.108;18.326;2023-06-22T17:24:40;29.20;58.30
21267;DHT22;10791;53.108;18.326;2023-06-22T17:29:43;29.60;56.60
21267;DHT22;10791;53.108;18.326;2023-06-22T17:34:46;29.90;57.20
21267;DHT22;10791;53.108;18.326;2023-06-22T17:39:52;29.80;57.40
21267;DHT22;10791;53.108;18.326;2023-06-22T17:45:00;29.80;58.10
21267;DHT22;10791;53.108;18.326;2023-06-22T17:50:06;29.80;59.10
21267;DHT22;10791;53.108;18.326;2023-06-22T17:55:09;29.80;58.50
21267;DHT22;10791;53.108;18.326;2023-06-22T18:00:13;29.90;58.50
21267;DHT22;10791;53.108;18.326;2023-06-22T18:05:31;29.80;59.70
21267;DHT22;10791;53.108;18.326;2023-06-22T18:10:36;29.60;61.10
21267;DHT22;10791;53.108;18.326;2023-06-22T18:15:41;29.50;61.10
21267;DHT22;10791;53.108;18.326;2023-06-22T18:20:45;29.30;61.00
21267;DHT22;10791;53.108;18.326;2023-06-22T18:25:49;28.60;62.10
21267;DHT22;10791;53.108;18.326;2023-06-22T18:30:53;28.00;64.80
21267;DHT22;10791;53.108;18.326;2023-06-22T18:35:57;27.50;66.40
21267;DHT22;10791;53.108;18.326;2023-06-22T18:41:01;27.20;69.60
21267;DHT22;10791;53.108;18.326;2023-06-22T18:52:03;26.40;71.50
21267;DHT22;10791;53.108;18.326;2023-06-22T19:18:24;24.80;82.10
21267;DHT22;10791;53.108;18.326;2023-06-22T19:23:30;24.50;84.10
21267;DHT22;10791;53.108;18.326;2023-06-22T19:28:34;24.10;86.20
21267;DHT22;10791;53.108;18.326;2023-06-22T19:33:47;23.70;88.40
21267;DHT22;10791;53.108;18.326;2023-06-22T19:38:53;23.30;91.50
21267;DHT22;10791;53.108;18.326;2023-06-22T19:43:56;23.00;92.90
21267;DHT22;10791;53.108;18.326;2023-06-22T19:49:00;22.70;95.60
21267;DHT22;10791;53.108;18.326;2023-06-22T19:54:12;22.50;97.20
21267;DHT22;10791;53.108;18.326;2023-06-22T19:59:22;22.20;98.60
21267;DHT22;10791;53.108;18.326;2023-06-22T20:04:27;22.00;99.90
21267;DHT22;10791;53.108;18.326;2023-06-22T20:09:30;21.80;99.90
21267;DHT22;10791;53.108;18.326;2023-06-22T20:14:34;21.70;99.90
21267;DHT22;10791;53.108;18.326;2023-06-22T20:19:38;21.50;99.90
21267;DHT22;10791;53.108;18.326;2023-06-22T20:24:45;21.30;99.90
21267;DHT22;10791;53.108;18.326;2023-06-22T20:29:48;21.20;99.90
21267;DHT22;10791;53.108;18.326;2023-06-22T20:34:51;21.00;99.90
21267;DHT22;10791;53.108;18.326;2023-06-22T20:39:59;20.80;99.90
21267;DHT22;10791;53.108;18.326;2023-06-22T20:45:04;20.60;99.90
21267;DHT22;10791;53.108;18.326;2023-06-22T20:50:08;20.40;99.90
21267;DHT22;10791;53.108;18.326;2023-06-22T20:55:12;20.30;99.90
21267;DHT22;10791;53.108;18.326;2023-06-22T21:00:16;20.10;99.90
21267;DHT22;10791;53.108;18.326;2023-06-22T21:05:20;20.00;99.90
21267;DHT22;10791;53.108;18.326;2023-06-22T21:10:24;19.90;99.90
21267;DHT22;10791;53.108;18.326;2023-06-22T21:15:27;19.80;99.90
21267;DHT22;10791;53.108;18.326;2023-06-22T21:20:34;19.50;99.90
21267;DHT22;10791;53.108;18.326;2023-06-22T21:25:37;19.30;99.90
21267;DHT22;10791;53.108;18.326;2023-06-22T21:30:40;19.10;99.90
21267;DHT22;10791;53.108;18.326;2023-06-22T21:35:43;19.00;99.90
21267;DHT22;10791;53.108;18.326;2023-06-22T21:40:47;19.00;99.90
21267;DHT22;10791;53.108;18.326;2023-06-22T21:45:50;19.00;99.90
21267;DHT22;10791;53.108;18.326;2023-06-22T21:50:54;18.90;99.90
21267;DHT22;10791;53.108;18.326;2023-06-22T21:55:57;18.80;99.90
21267;DHT22;10791;53.108;18.326;2023-06-22T22:01:00;18.60;99.90
21267;DHT22;10791;53.108;18.326;2023-06-22T22:06:03;18.40;99.90
21267;DHT22;10791;53.108;18.326;2023-06-22T22:11:06;18.30;99.90
21267;DHT22;10791;53.108;18.326;2023-06-22T22:16:10;18.00;99.90
21267;DHT22;10791;53.108;18.326;2023-06-22T22:21:13;17.90;99.90
21267;DHT22;10791;53.108;18.326;2023-06-22T22:26:17;17.70;99.90
21267;DHT22;10791;53.108;18.326;2023-06-22T22:31:20;17.70;99.90
21267;DHT22;10791;53.108;18.326;2023-06-22T22:36:23;17.60;99.90
21267;DHT22;10791;53.108;18.326;2023-06-22T22:41:27;17.60;99.90
21267;DHT22;10791;53.108;18.326;2023-06-22T22:46:30;17.50;99.90
21267;DHT22;10791;53.108;18.326;2023-06-22T22:51:36;17.50;99.90
21267;DHT22;10791;53.108;18.326;2023-06-22T22:56:40;17.30;99.90
21267;DHT22;10791;53.108;18.326;2023-06-22T23:01:43;17.20;99.90
21267;DHT22;10791;53.108;18.326;2023-06-22T23:06:46;17.20;99.90
21267;DHT22;10791;53.108;18.326;2023-06-22T23:11:49;17.20;99.90
21267;DHT22;10791;53.108;18.326;2023-06-22T23:16:52;17.20;99.90
21267;DHT22;10791;53.108;18.326;2023-06-22T23:22:00;17.10;99.90
21267;DHT22;10791;53.108;18.326;2023-06-22T23:27:03;17.00;99.90
21267;DHT22;10791;53.108;18.326;2023-06-22T23:32:07;17.00;99.90
21267;DHT22;10791;53.108;18.326;2023-06-22T23:37:10;17.00;99.90
21267;DHT22;10791;53.108;18.326;2023-06-22T23:42:13;16.90;99.90
21267;DHT22;10791;53.108;18.326;2023-06-22T23:47:16;16.70;99.90
21267;DHT22;10791;53.108;18.326;2023-06-22T23:52:20;16.70;99.90
21267;DHT22;10791;53.108;18.326;2023-06-22T23:57:23;16.70;99.90
